sensor_id;sensor_type;location;lat;lon;timestamp;pressure;altitude;pressure_sealevel;temperature;humidity
74343;BME280;62767;50.300;8.070;2024-03-06T00:01:02;100040.75;;;18.44;43.78
74343;BME280;62767;50.300;8.070;2024-03-06T00:03:28;100045.19;;;18.43;43.78
74343;BME280;62767;50.300;8.070;2024-03-06T00:05:53;100051.47;;;18.42;43.75
74343;BME280;62767;50.300;8.070;2024-03-06T00:08:19;100055.91;;;18.42;43.78
74343;BME280;62767;50.300;8.070;2024-03-06T00:10:44;100058.53;;;18.42;43.80
74343;BME280;62767;50.300;8.070;2024-03-06T00:13:10;100054.34;;;18.39;43.75
74343;BME280;62767;50.300;8.070;2024-03-06T00:15:36;100057.13;;;18.38;43.81
74343;BME280;62767;50.300;8.070;2024-03-06T00:18:01;100065.84;;;18.38;43.70
74343;BME280;62767;50.300;8.070;2024-03-06T00:20:28;100072.25;;;18.36;43.76
74343;BME280;62767;50.300;8.070;2024-03-06T00:22:54;100066.00;;;18.37;43.70
74343;BME280;62767;50.300;8.070;2024-03-06T00:25:19;100067.94;;;18.35;43.79
74343;BME280;62767;50.300;8.070;2024-03-06T00:27:45;100068.06;;;18.33;43.76
74343;BME280;62767;50.300;8.070;2024-03-06T00:30:11;100079.44;;;18.34;43.68
74343;BME280;62767;50.300;8.070;2024-03-06T00:32:36;100071.66;;;18.32;43.68
74343;BME280;62767;50.300;8.070;2024-03-06T00:35:02;100082.19;;;18.32;43.70
74343;BME280;62767;50.300;8.070;2024-03-06T00:37:29;100081.53;;;18.30;43.79
74343;BME280;62767;50.300;8.070;2024-03-06T00:39:55;100090.25;;;18.31;43.85
74343;BME280;62767;50.300;8.070;2024-03-06T00:42:21;100088.72;;;18.28;43.63
74343;BME280;62767;50.300;8.070;2024-03-06T00:44:46;100085.25;;;18.28;43.74
74343;BME280;62767;50.300;8.070;2024-03-06T00:47:12;100091.47;;;18.27;43.62
74343;BME280;62767;50.300;8.070;2024-03-06T00:49:37;100095.91;;;18.26;43.71
74343;BME280;62767;50.300;8.070;2024-03-06T00:52:04;100093.28;;;18.26;43.75
74343;BME280;62767;50.300;8.070;2024-03-06T00:54:29;100091.75;;;18.24;43.71
74343;BME280;62767;50.300;8.070;2024-03-06T00:56:56;100097.97;;;18.23;43.69
74343;BME280;62767;50.300;8.070;2024-03-06T00:59:22;100098.81;;;18.23;43.65
74343;BME280;62767;50.300;8.070;2024-03-06T01:01:48;100098.94;;;18.22;43.60
74343;BME280;62767;50.300;8.070;2024-03-06T01:04:13;100099.91;;;18.21;43.72
74343;BME280;62767;50.300;8.070;2024-03-06T01:06:39;100100.91;;;18.20;44.00
74343;BME280;62767;50.300;8.070;2024-03-06T01:09:05;100095.75;;;18.18;43.61
74343;BME280;62767;50.300;8.070;2024-03-06T01:11:31;100090.47;;;18.18;43.62
74343;BME280;62767;50.300;8.070;2024-03-06T01:13:56;100088.94;;;18.16;43.64
74343;BME280;62767;50.300;8.070;2024-03-06T01:16:22;100096.00;;;18.15;43.67
74343;BME280;62767;50.300;8.070;2024-03-06T01:18:47;100093.38;;;18.15;43.67
74343;BME280;62767;50.300;8.070;2024-03-06T01:21:13;100087.41;;;18.13;43.61
74343;BME280;62767;50.300;8.070;2024-03-06T01:23:38;100100.72;;;18.11;43.70
74343;BME280;62767;50.300;8.070;2024-03-06T01:26:04;100092.81;;;18.11;43.74
74343;BME280;62767;50.300;8.070;2024-03-06T01:28:29;100086.69;;;18.11;43.70
74343;BME280;62767;50.300;8.070;2024-03-06T01:30:55;100087.66;;;18.10;43.62
74343;BME280;62767;50.300;8.070;2024-03-06T01:33:21;100091.25;;;18.09;43.66
74343;BME280;62767;50.300;8.070;2024-03-06T01:35:47;100093.06;;;18.08;43.75
74343;BME280;62767;50.300;8.070;2024-03-06T01:38:12;100094.88;;;18.08;43.73
74343;BME280;62767;50.300;8.070;2024-03-06T01:40:43;100087.09;;;18.06;43.69
74343;BME280;62767;50.300;8.070;2024-03-06T01:43:18;100077.53;;;18.05;43.60
74343;BME280;62767;50.300;8.070;2024-03-06T01:45:44;100084.72;;;18.03;43.74
74343;BME280;62767;50.300;8.070;2024-03-06T01:48:11;100084.72;;;18.03;43.72
74343;BME280;62767;50.300;8.070;2024-03-06T01:50:37;100092.78;;;18.02;43.70
74343;BME280;62767;50.300;8.070;2024-03-06T01:53:02;100091.66;;;18.04;43.71
74343;BME280;62767;50.300;8.070;2024-03-06T01:55:28;100093.34;;;18.05;43.61
74343;BME280;62767;50.300;8.070;2024-03-06T01:57:53;100094.16;;;18.06;43.65
74343;BME280;62767;50.300;8.070;2024-03-06T02:00:19;100102.63;;;18.09;43.72
74343;BME280;62767;50.300;8.070;2024-03-06T02:02:46;100102.25;;;18.14;43.62
74343;BME280;62767;50.300;8.070;2024-03-06T02:05:12;100112.25;;;18.20;43.35
74343;BME280;62767;50.300;8.070;2024-03-06T02:07:38;100109.34;;;18.23;43.32
74343;BME280;62767;50.300;8.070;2024-03-06T02:10:07;100104.53;;;18.28;43.01
74343;BME280;62767;50.300;8.070;2024-03-06T02:12:36;100113.69;;;18.34;43.24
74343;BME280;62767;50.300;8.070;2024-03-06T02:15:01;100119.53;;;18.37;43.01
74343;BME280;62767;50.300;8.070;2024-03-06T02:17:28;100105.97;;;18.42;42.91
74343;BME280;62767;50.300;8.070;2024-03-06T02:19:55;100108.91;;;18.48;42.77
74343;BME280;62767;50.300;8.070;2024-03-06T02:22:23;100106.69;;;18.53;42.65
74343;BME280;62767;50.300;8.070;2024-03-06T02:24:48;100110.63;;;18.59;42.54
74343;BME280;62767;50.300;8.070;2024-03-06T02:27:15;100114.53;;;18.65;42.44
74343;BME280;62767;50.300;8.070;2024-03-06T02:29:42;100114.97;;;18.70;42.29
74343;BME280;62767;50.300;8.070;2024-03-06T02:32:09;100112.75;;;18.75;42.22
74343;BME280;62767;50.300;8.070;2024-03-06T02:34:34;100124.56;;;18.80;42.21
74343;BME280;62767;50.300;8.070;2024-03-06T02:37:00;100125.69;;;18.87;42.12
74343;BME280;62767;50.300;8.070;2024-03-06T02:39:25;100127.91;;;18.92;42.07
74343;BME280;62767;50.300;8.070;2024-03-06T02:41:50;100131.69;;;18.99;41.90
74343;BME280;62767;50.300;8.070;2024-03-06T02:44:16;100132.22;;;19.03;41.84
74343;BME280;62767;50.300;8.070;2024-03-06T02:46:47;100134.31;;;19.09;41.83
74343;BME280;62767;50.300;8.070;2024-03-06T02:49:13;100132.09;;;19.14;41.65
74343;BME280;62767;50.300;8.070;2024-03-06T02:51:39;100137.94;;;19.17;41.38
74343;BME280;62767;50.300;8.070;2024-03-06T02:54:04;100131.28;;;19.23;41.71
74343;BME280;62767;50.300;8.070;2024-03-06T02:56:30;100138.78;;;19.27;41.38
74343;BME280;62767;50.300;8.070;2024-03-06T02:58:55;100141.13;;;19.30;41.36
74343;BME280;62767;50.300;8.070;2024-03-06T03:01:21;100137.53;;;19.31;41.40
74343;BME280;62767;50.300;8.070;2024-03-06T03:03:46;100133.50;;;19.37;41.25
74343;BME280;62767;50.300;8.070;2024-03-06T03:06:12;100134.19;;;19.39;41.23
74343;BME280;62767;50.300;8.070;2024-03-06T03:08:38;100140.03;;;19.43;41.21
74343;BME280;62767;50.300;8.070;2024-03-06T03:11:04;100133.69;;;19.45;41.06
74343;BME280;62767;50.300;8.070;2024-03-06T03:13:30;100135.19;;;19.48;41.16
74343;BME280;62767;50.300;8.070;2024-03-06T03:15:56;100126.16;;;19.50;41.07
74343;BME280;62767;50.300;8.070;2024-03-06T03:18:22;100129.50;;;19.52;40.90
74343;BME280;62767;50.300;8.070;2024-03-06T03:20:47;100129.22;;;19.55;41.10
74343;BME280;62767;50.300;8.070;2024-03-06T03:23:13;100135.19;;;19.57;40.88
74343;BME280;62767;50.300;8.070;2024-03-06T03:25:40;100136.03;;;19.58;40.75
74343;BME280;62767;50.300;8.070;2024-03-06T03:28:06;100136.03;;;19.58;40.98
74343;BME280;62767;50.300;8.070;2024-03-06T03:30:32;100144.75;;;19.58;40.91
74343;BME280;62767;50.300;8.070;2024-03-06T03:32:58;100152.69;;;19.58;40.84
74343;BME280;62767;50.300;8.070;2024-03-06T03:35:24;100145.75;;;19.57;40.86
74343;BME280;62767;50.300;8.070;2024-03-06T03:37:53;100152.56;;;19.60;40.66
74343;BME280;62767;50.300;8.070;2024-03-06T03:40:21;100141.16;;;19.59;40.81
74343;BME280;62767;50.300;8.070;2024-03-06T03:42:47;100146.31;;;19.61;40.68
74343;BME280;62767;50.300;8.070;2024-03-06T03:45:13;100146.31;;;19.61;40.79
74343;BME280;62767;50.300;8.070;2024-03-06T03:47:38;100155.06;;;19.61;40.54
74343;BME280;62767;50.300;8.070;2024-03-06T03:50:04;100157.00;;;19.59;40.60
74343;BME280;62767;50.300;8.070;2024-03-06T03:52:30;100159.81;;;19.58;40.64
74343;BME280;62767;50.300;8.070;2024-03-06T03:54:55;100165.22;;;19.56;40.72
74343;BME280;62767;50.300;8.070;2024-03-06T03:57:21;100161.19;;;19.52;40.77
74343;BME280;62767;50.300;8.070;2024-03-06T03:59:46;100162.28;;;19.50;40.83
74343;BME280;62767;50.300;8.070;2024-03-06T04:02:12;100166.19;;;19.46;40.78
74343;BME280;62767;50.300;8.070;2024-03-06T04:04:37;100167.13;;;19.45;40.73
74343;BME280;62767;50.300;8.070;2024-03-06T04:07:03;100168.22;;;19.42;40.90
74343;BME280;62767;50.300;8.070;2024-03-06T04:09:32;100166.41;;;19.43;40.87
74343;BME280;62767;50.300;8.070;2024-03-06T04:12:02;100169.06;;;19.43;40.86
74343;BME280;62767;50.300;8.070;2024-03-06T04:14:28;100176.00;;;19.44;40.97
74343;BME280;62767;50.300;8.070;2024-03-06T04:16:53;100175.19;;;19.43;40.88
74343;BME280;62767;50.300;8.070;2024-03-06T04:19:19;100182.13;;;19.44;40.88
74343;BME280;62767;50.300;8.070;2024-03-06T04:21:44;100175.91;;;19.45;40.76
74343;BME280;62767;50.300;8.070;2024-03-06T04:24:10;100178.38;;;19.47;40.83
74343;BME280;62767;50.300;8.070;2024-03-06T04:26:35;100181.88;;;19.47;40.87
74343;BME280;62767;50.300;8.070;2024-03-06T04:29:01;100178.13;;;19.50;41.05
74343;BME280;62767;50.300;8.070;2024-03-06T04:31:28;100185.09;;;19.51;40.80
74343;BME280;62767;50.300;8.070;2024-03-06T04:33:54;100189.25;;;19.53;40.82
74343;BME280;62767;50.300;8.070;2024-03-06T04:36:19;100190.06;;;19.54;40.81
74343;BME280;62767;50.300;8.070;2024-03-06T04:38:45;100191.75;;;19.55;40.74
74343;BME280;62767;50.300;8.070;2024-03-06T04:41:10;100192.44;;;19.57;40.71
74343;BME280;62767;50.300;8.070;2024-03-06T04:43:36;100196.75;;;19.58;40.57
74343;BME280;62767;50.300;8.070;2024-03-06T04:46:02;100197.31;;;19.61;40.57
74343;BME280;62767;50.300;8.070;2024-03-06T04:48:27;100202.28;;;19.64;40.54
74343;BME280;62767;50.300;8.070;2024-03-06T04:50:53;100208.28;;;19.66;40.39
74343;BME280;62767;50.300;8.070;2024-03-06T04:53:18;100209.13;;;19.67;40.25
74343;BME280;62767;50.300;8.070;2024-03-06T04:55:45;100206.47;;;19.67;40.39
74343;BME280;62767;50.300;8.070;2024-03-06T04:58:12;100210.94;;;19.66;40.27
74343;BME280;62767;50.300;8.070;2024-03-06T05:00:37;100211.75;;;19.67;40.35
74343;BME280;62767;50.300;8.070;2024-03-06T05:03:03;100216.34;;;19.65;40.32
74343;BME280;62767;50.300;8.070;2024-03-06T05:05:29;100214.81;;;19.62;40.25
74343;BME280;62767;50.300;8.070;2024-03-06T05:07:54;100216.88;;;19.59;40.35
74343;BME280;62767;50.300;8.070;2024-03-06T05:10:20;100218.97;;;19.55;40.25
74343;BME280;62767;50.300;8.070;2024-03-06T05:12:46;100231.63;;;19.52;40.47
74343;BME280;62767;50.300;8.070;2024-03-06T05:15:11;100230.09;;;19.49;40.48
74343;BME280;62767;50.300;8.070;2024-03-06T05:17:37;100234.81;;;19.46;40.45
74343;BME280;62767;50.300;8.070;2024-03-06T05:20:02;100234.38;;;19.41;40.41
74343;BME280;62767;50.300;8.070;2024-03-06T05:22:29;100235.47;;;19.38;40.56
74343;BME280;62767;50.300;8.070;2024-03-06T05:24:55;100240.03;;;19.36;40.53
74343;BME280;62767;50.300;8.070;2024-03-06T05:27:21;100234.34;;;19.31;40.67
74343;BME280;62767;50.300;8.070;2024-03-06T05:29:46;100244.34;;;19.27;40.83
74343;BME280;62767;50.300;8.070;2024-03-06T05:32:12;100247.41;;;19.23;40.79
74343;BME280;62767;50.300;8.070;2024-03-06T05:34:38;100251.13;;;19.20;40.82
74343;BME280;62767;50.300;8.070;2024-03-06T05:37:03;100262.78;;;19.18;40.89
74343;BME280;62767;50.300;8.070;2024-03-06T05:39:30;100263.19;;;19.13;40.90
74343;BME280;62767;50.300;8.070;2024-03-06T05:42:00;100263.47;;;19.10;41.14
74343;BME280;62767;50.300;8.070;2024-03-06T05:44:26;100265.66;;;19.05;40.99
74343;BME280;62767;50.300;8.070;2024-03-06T05:46:51;100266.88;;;19.01;40.98
74343;BME280;62767;50.300;8.070;2024-03-06T05:49:17;100273.28;;;18.99;41.14
74343;BME280;62767;50.300;8.070;2024-03-06T05:51:42;100266.59;;;18.95;41.23
74343;BME280;62767;50.300;8.070;2024-03-06T05:54:08;100278.38;;;18.90;41.16
74343;BME280;62767;50.300;8.070;2024-03-06T05:56:35;100279.63;;;18.86;41.23
74343;BME280;62767;50.300;8.070;2024-03-06T05:59:00;100280.84;;;18.82;41.25
74343;BME280;62767;50.300;8.070;2024-03-06T06:01:33;100287.34;;;18.78;41.36
74343;BME280;62767;50.300;8.070;2024-03-06T06:03:59;100291.22;;;18.74;41.51
74343;BME280;62767;50.300;8.070;2024-03-06T06:06:26;100291.84;;;18.67;41.55
74343;BME280;62767;50.300;8.070;2024-03-06T06:08:51;100299.91;;;18.65;41.54
74343;BME280;62767;50.300;8.070;2024-03-06T06:11:17;100294.31;;;18.59;41.92
74343;BME280;62767;50.300;8.070;2024-03-06T06:13:42;100302.72;;;18.52;41.71
74343;BME280;62767;50.300;8.070;2024-03-06T06:16:08;100302.47;;;18.56;42.20
74343;BME280;62767;50.300;8.070;2024-03-06T06:18:34;100297.78;;;18.59;42.15
74343;BME280;62767;50.300;8.070;2024-03-06T06:20:59;100304.75;;;18.60;41.91
74343;BME280;62767;50.300;8.070;2024-03-06T06:23:25;100300.16;;;18.62;41.92
74343;BME280;62767;50.300;8.070;2024-03-06T06:25:51;100306.19;;;18.74;42.22
74343;BME280;62767;50.300;8.070;2024-03-06T06:28:17;100309.84;;;18.82;42.16
74343;BME280;62767;50.300;8.070;2024-03-06T06:30:42;100312.66;;;18.90;42.18
74343;BME280;62767;50.300;8.070;2024-03-06T06:33:08;100315.34;;;19.00;42.17
74343;BME280;62767;50.300;8.070;2024-03-06T06:35:34;100315.63;;;19.07;42.02
74343;BME280;62767;50.300;8.070;2024-03-06T06:38:00;100318.13;;;18.99;41.89
74343;BME280;62767;50.300;8.070;2024-03-06T06:40:25;100321.78;;;18.77;42.49
74343;BME280;62767;50.300;8.070;2024-03-06T06:42:53;100324.00;;;18.61;42.56
74343;BME280;62767;50.300;8.070;2024-03-06T06:45:20;100328.97;;;18.54;42.76
74343;BME280;62767;50.300;8.070;2024-03-06T06:47:47;100337.22;;;18.49;42.72
74343;BME280;62767;50.300;8.070;2024-03-06T06:50:13;100348.88;;;18.47;42.70
74343;BME280;62767;50.300;8.070;2024-03-06T06:52:38;100344.81;;;18.43;42.84
74343;BME280;62767;50.300;8.070;2024-03-06T06:55:04;100336.09;;;18.42;42.79
74343;BME280;62767;50.300;8.070;2024-03-06T06:57:31;100340.63;;;18.40;42.71
74343;BME280;62767;50.300;8.070;2024-03-06T06:59:56;100350.47;;;18.38;42.96
74343;BME280;62767;50.300;8.070;2024-03-06T07:02:22;100357.81;;;18.35;42.66
74343;BME280;62767;50.300;8.070;2024-03-06T07:04:48;100359.31;;;18.37;42.67
74343;BME280;62767;50.300;8.070;2024-03-06T07:07:14;100362.94;;;18.36;42.61
74343;BME280;62767;50.300;8.070;2024-03-06T07:09:40;100366.66;;;18.34;42.53
74343;BME280;62767;50.300;8.070;2024-03-06T07:12:05;100362.34;;;18.33;42.51
74343;BME280;62767;50.300;8.070;2024-03-06T07:14:33;100374.00;;;18.30;42.58
74343;BME280;62767;50.300;8.070;2024-03-06T07:16:58;100369.81;;;18.28;42.66
74343;BME280;62767;50.300;8.070;2024-03-06T07:19:24;100376.03;;;18.27;42.67
74343;BME280;62767;50.300;8.070;2024-03-06T07:21:50;100366.59;;;18.24;42.51
74343;BME280;62767;50.300;8.070;2024-03-06T07:24:15;100376.41;;;18.22;42.62
74343;BME280;62767;50.300;8.070;2024-03-06T07:26:41;100369.63;;;18.20;42.62
74343;BME280;62767;50.300;8.070;2024-03-06T07:29:07;100380.25;;;18.18;42.66
74343;BME280;62767;50.300;8.070;2024-03-06T07:31:42;100387.44;;;18.16;42.58
74343;BME280;62767;50.300;8.070;2024-03-06T07:34:09;100389.25;;;18.16;42.69
74343;BME280;62767;50.300;8.070;2024-03-06T07:36:35;100387.72;;;18.13;42.66
74343;BME280;62767;50.300;8.070;2024-03-06T07:39:02;100392.97;;;18.13;42.57
74343;BME280;62767;50.300;8.070;2024-03-06T07:41:28;100391.31;;;18.12;42.65
74343;BME280;62767;50.300;8.070;2024-03-06T07:43:54;100391.41;;;18.10;42.50
74343;BME280;62767;50.300;8.070;2024-03-06T07:46:20;100390.56;;;18.10;42.79
74343;BME280;62767;50.300;8.070;2024-03-06T07:48:45;100397.78;;;18.08;42.46
74343;BME280;62767;50.300;8.070;2024-03-06T07:51:11;100398.59;;;18.08;42.61
74343;BME280;62767;50.300;8.070;2024-03-06T07:53:37;100402.34;;;18.06;42.56
74343;BME280;62767;50.300;8.070;2024-03-06T07:56:03;100403.19;;;18.06;42.50
74343;BME280;62767;50.300;8.070;2024-03-06T07:58:29;100407.72;;;18.04;42.55
74343;BME280;62767;50.300;8.070;2024-03-06T08:00:54;100418.38;;;18.03;42.56
74343;BME280;62767;50.300;8.070;2024-03-06T08:03:21;100415.63;;;18.04;42.60
74343;BME280;62767;50.300;8.070;2024-03-06T08:05:51;100418.38;;;18.03;42.60
74343;BME280;62767;50.300;8.070;2024-03-06T08:08:18;100416.72;;;18.02;42.57
74343;BME280;62767;50.300;8.070;2024-03-06T08:10:43;100412.41;;;18.01;42.54
74343;BME280;62767;50.300;8.070;2024-03-06T08:13:11;100420.44;;;17.99;42.42
74343;BME280;62767;50.300;8.070;2024-03-06T08:15:37;100418.63;;;18.00;42.47
74343;BME280;62767;50.300;8.070;2024-03-06T08:18:02;100416.94;;;17.99;42.59
74343;BME280;62767;50.300;8.070;2024-03-06T08:20:31;100421.38;;;17.98;42.37
74343;BME280;62767;50.300;8.070;2024-03-06T08:22:58;100421.50;;;17.97;42.43
74343;BME280;62767;50.300;8.070;2024-03-06T08:25:24;100425.94;;;17.96;42.42
74343;BME280;62767;50.300;8.070;2024-03-06T08:27:50;100436.59;;;17.95;42.47
74343;BME280;62767;50.300;8.070;2024-03-06T08:30:15;100427.03;;;17.94;42.48
74343;BME280;62767;50.300;8.070;2024-03-06T08:32:41;100427.03;;;17.94;42.40
74343;BME280;62767;50.300;8.070;2024-03-06T08:35:13;100431.44;;;17.93;42.48
74343;BME280;62767;50.300;8.070;2024-03-06T08:37:39;100432.41;;;17.92;42.37
74343;BME280;62767;50.300;8.070;2024-03-06T08:40:06;100435.88;;;17.93;42.37
74343;BME280;62767;50.300;8.070;2024-03-06T08:42:43;100443.88;;;17.91;42.46
74343;BME280;62767;50.300;8.070;2024-03-06T08:45:11;100441.25;;;17.91;42.37
74343;BME280;62767;50.300;8.070;2024-03-06T08:47:37;100445.81;;;17.89;42.29
74343;BME280;62767;50.300;8.070;2024-03-06T08:50:03;100454.69;;;17.88;42.45
74343;BME280;62767;50.300;8.070;2024-03-06T08:52:29;100451.22;;;17.88;42.39
74343;BME280;62767;50.300;8.070;2024-03-06T08:54:56;100449.53;;;17.87;42.40
74343;BME280;62767;50.300;8.070;2024-03-06T08:57:22;100454.78;;;17.87;42.35
74343;BME280;62767;50.300;8.070;2024-03-06T08:59:49;100460.19;;;17.85;42.39
74343;BME280;62767;50.300;8.070;2024-03-06T09:02:18;100462.94;;;17.84;42.40
74343;BME280;62767;50.300;8.070;2024-03-06T09:04:46;100462.84;;;17.85;42.25
74343;BME280;62767;50.300;8.070;2024-03-06T09:07:12;100464.75;;;17.83;42.36
74343;BME280;62767;50.300;8.070;2024-03-06T09:09:38;100469.16;;;17.83;42.34
74343;BME280;62767;50.300;8.070;2024-03-06T09:12:05;100465.69;;;17.82;42.29
74343;BME280;62767;50.300;8.070;2024-03-06T09:14:32;100467.50;;;17.82;42.40
74343;BME280;62767;50.300;8.070;2024-03-06T09:16:58;100468.44;;;17.81;42.47
74343;BME280;62767;50.300;8.070;2024-03-06T09:19:24;100473.00;;;17.79;42.40
74343;BME280;62767;50.300;8.070;2024-03-06T09:21:49;100478.38;;;17.77;42.41
74343;BME280;62767;50.300;8.070;2024-03-06T09:24:15;100477.53;;;17.77;42.34
74343;BME280;62767;50.300;8.070;2024-03-06T09:26:40;100478.38;;;17.77;42.39
74343;BME280;62767;50.300;8.070;2024-03-06T09:29:06;100480.28;;;17.75;42.42
74343;BME280;62767;50.300;8.070;2024-03-06T09:31:31;100489.03;;;17.76;42.41
74343;BME280;62767;50.300;8.070;2024-03-06T09:33:58;100485.69;;;17.74;42.47
74343;BME280;62767;50.300;8.070;2024-03-06T09:36:23;100485.69;;;17.74;42.39
74343;BME280;62767;50.300;8.070;2024-03-06T09:38:50;100483.19;;;17.72;42.38
74343;BME280;62767;50.300;8.070;2024-03-06T09:41:16;100487.59;;;17.72;42.34
74343;BME280;62767;50.300;8.070;2024-03-06T09:43:44;100492.03;;;17.71;42.21
74343;BME280;62767;50.300;8.070;2024-03-06T09:46:09;100490.25;;;17.72;42.44
74343;BME280;62767;50.300;8.070;2024-03-06T09:48:35;100492.13;;;17.69;42.45
74343;BME280;62767;50.300;8.070;2024-03-06T09:51:01;100490.47;;;17.68;42.48
74343;BME280;62767;50.300;8.070;2024-03-06T09:53:28;100493.94;;;17.69;42.33
74343;BME280;62767;50.300;8.070;2024-03-06T09:55:55;100491.31;;;17.69;42.45
74343;BME280;62767;50.300;8.070;2024-03-06T09:58:21;100495.72;;;17.68;42.36
74343;BME280;62767;50.300;8.070;2024-03-06T10:00:48;100499.34;;;17.67;42.32
74343;BME280;62767;50.300;8.070;2024-03-06T10:03:15;100495.03;;;17.66;42.46
74343;BME280;62767;50.300;8.070;2024-03-06T10:05:41;100500.28;;;17.66;42.34
74343;BME280;62767;50.300;8.070;2024-03-06T10:08:09;100497.78;;;17.65;42.43
74343;BME280;62767;50.300;8.070;2024-03-06T10:10:35;100500.41;;;17.65;42.33
74343;BME280;62767;50.300;8.070;2024-03-06T10:13:00;100496.09;;;17.64;42.47
74343;BME280;62767;50.300;8.070;2024-03-06T10:15:26;100498.72;;;17.64;42.40
74343;BME280;62767;50.300;8.070;2024-03-06T10:18:15;100504.81;;;17.64;42.41
74343;BME280;62767;50.300;8.070;2024-03-06T10:20:44;100497.03;;;17.63;42.37
74343;BME280;62767;50.300;8.070;2024-03-06T10:23:10;100501.47;;;17.62;42.31
74343;BME280;62767;50.300;8.070;2024-03-06T10:25:36;100504.94;;;17.63;42.39
74343;BME280;62767;50.300;8.070;2024-03-06T10:28:09;100506.72;;;17.62;42.33
74343;BME280;62767;50.300;8.070;2024-03-06T10:30:37;100505.91;;;17.62;42.30
74343;BME280;62767;50.300;8.070;2024-03-06T10:33:04;100504.25;;;17.61;42.42
74343;BME280;62767;50.300;8.070;2024-03-06T10:35:34;100512.97;;;17.61;42.29
74343;BME280;62767;50.300;8.070;2024-03-06T10:38:01;100513.94;;;17.60;42.44
74343;BME280;62767;50.300;8.070;2024-03-06T10:40:34;100506.03;;;17.60;42.33
74343;BME280;62767;50.300;8.070;2024-03-06T10:43:02;100504.25;;;17.61;42.38
74343;BME280;62767;50.300;8.070;2024-03-06T10:45:48;100503.41;;;17.60;42.33
74343;BME280;62767;50.300;8.070;2024-03-06T10:48:14;100500.75;;;17.60;42.29
74343;BME280;62767;50.300;8.070;2024-03-06T10:50:41;100504.25;;;17.61;42.23
74343;BME280;62767;50.300;8.070;2024-03-06T10:53:10;100512.13;;;17.61;42.46
74343;BME280;62767;50.300;8.070;2024-03-06T10:55:36;100509.50;;;17.61;42.52
74343;BME280;62767;50.300;8.070;2024-03-06T10:58:05;100505.78;;;17.63;42.30
74343;BME280;62767;50.300;8.070;2024-03-06T11:00:38;100511.78;;;17.65;42.38
74343;BME280;62767;50.300;8.070;2024-03-06T11:03:09;100512.34;;;17.69;42.22
74343;BME280;62767;50.300;8.070;2024-03-06T11:05:44;100518.34;;;17.71;42.20
74343;BME280;62767;50.300;8.070;2024-03-06T11:08:13;100517.28;;;17.74;42.05
74343;BME280;62767;50.300;8.070;2024-03-06T11:10:40;100509.16;;;17.77;42.08
74343;BME280;62767;50.300;8.070;2024-03-06T11:13:25;100516.78;;;17.80;41.94
74343;BME280;62767;50.300;8.070;2024-03-06T11:15:57;100510.47;;;17.82;41.90
74343;BME280;62767;50.300;8.070;2024-03-06T11:23:30;100509.88;;;17.90;41.82
74343;BME280;62767;50.300;8.070;2024-03-06T11:28:36;100504.22;;;17.94;41.71
74343;BME280;62767;50.300;8.070;2024-03-06T11:31:08;100505.78;;;17.97;41.65
74343;BME280;62767;50.300;8.070;2024-03-06T11:33:45;100499.44;;;17.99;41.50
74343;BME280;62767;50.300;8.070;2024-03-06T11:36:23;100499.31;;;18.01;41.54
74343;BME280;62767;50.300;8.070;2024-03-06T11:38:58;100505.44;;;18.01;41.39
74343;BME280;62767;50.300;8.070;2024-03-06T11:41:26;100504.47;;;18.02;41.35
74343;BME280;62767;50.300;8.070;2024-03-06T11:43:53;100500.16;;;18.01;41.48
74343;BME280;62767;50.300;8.070;2024-03-06T11:49:19;100495.75;;;18.02;41.46
74343;BME280;62767;50.300;8.070;2024-03-06T11:51:53;100491.41;;;18.01;41.39
74343;BME280;62767;50.300;8.070;2024-03-06T11:54:20;100495.00;;;18.00;41.38
74343;BME280;62767;50.300;8.070;2024-03-06T11:56:50;100488.91;;;17.99;41.53
74343;BME280;62767;50.300;8.070;2024-03-06T11:59:17;100485.44;;;17.99;41.49
74343;BME280;62767;50.300;8.070;2024-03-06T12:01:42;100488.19;;;17.97;41.42
74343;BME280;62767;50.300;8.070;2024-03-06T12:04:08;100485.53;;;17.97;41.66
74343;BME280;62767;50.300;8.070;2024-03-06T12:06:34;100482.06;;;17.97;41.61
74343;BME280;62767;50.300;8.070;2024-03-06T12:08:59;100474.31;;;17.95;41.54
74343;BME280;62767;50.300;8.070;2024-03-06T12:11:25;100484.00;;;17.95;41.48
74343;BME280;62767;50.300;8.070;2024-03-06T12:13:51;100480.53;;;17.94;41.52
74343;BME280;62767;50.300;8.070;2024-03-06T12:16:17;100480.53;;;17.94;41.54
74343;BME280;62767;50.300;8.070;2024-03-06T12:18:43;100476.22;;;17.93;41.57
74343;BME280;62767;50.300;8.070;2024-03-06T12:21:10;100477.16;;;17.92;41.50
74343;BME280;62767;50.300;8.070;2024-03-06T12:23:36;100475.50;;;17.91;41.52
74343;BME280;62767;50.300;8.070;2024-03-06T12:26:07;100479.81;;;17.92;41.58
74343;BME280;62767;50.300;8.070;2024-03-06T12:28:37;100483.38;;;17.91;41.51
74343;BME280;62767;50.300;8.070;2024-03-06T12:31:04;100480.06;;;17.89;41.59
74343;BME280;62767;50.300;8.070;2024-03-06T12:33:30;100474.78;;;17.89;41.54
74343;BME280;62767;50.300;8.070;2024-03-06T12:36:14;100479.22;;;17.89;41.58
74343;BME280;62767;50.300;8.070;2024-03-06T12:38:40;100488.06;;;17.88;41.66
74343;BME280;62767;50.300;8.070;2024-03-06T12:41:05;100481.28;;;17.85;41.66
74343;BME280;62767;50.300;8.070;2024-03-06T12:43:31;100479.59;;;17.84;41.73
74343;BME280;62767;50.300;8.070;2024-03-06T12:45:58;100476.97;;;17.84;41.71
74343;BME280;62767;50.300;8.070;2024-03-06T12:48:24;100474.44;;;17.83;41.77
74343;BME280;62767;50.300;8.070;2024-03-06T12:50:51;100474.53;;;17.81;41.69
74343;BME280;62767;50.300;8.070;2024-03-06T12:53:22;100472.88;;;17.80;41.80
74343;BME280;62767;50.300;8.070;2024-03-06T12:55:48;100478.97;;;17.81;41.77
74343;BME280;62767;50.300;8.070;2024-03-06T12:58:14;100470.38;;;17.79;41.69